Time;durP1;ratioP1;P1;durP2;ratioP2;P2;SDS_P1;SDS_P2;PMS_P1;PMS_P2;Temp;Humidity;BMP_temperature;BMP_pressure;BME280_temperature;BME280_humidity;BME280_pressure;Samples;Min_cycle;Max_cycle;Signal;HPM_P1;HPM_P2
2023/09/17 00:01:49;;;;;;;3.92;2.10;;;;;;;;;;20882803;22;20234;-77
2023/09/17 00:11:51;;;;;;;3.08;2.20;;;;;;;;;;20882313;28;20226;-77
2023/09/17 00:21:53;;;;;;;2.80;2.20;;;;;;;;;;20850922;28;20276;-77
2023/09/17 00:31:55;;;;;;;2.50;1.80;;;;;;;;;;20887779;28;20285;-75
2023/09/17 00:41:57;;;;;;;2.33;1.70;;;;;;;;;;20862476;28;20237;-77
2023/09/17 00:52:00;;;;;;;3.13;1.90;;;22.90;99.90;;;;;;20879787;28;20698;-77
2023/09/17 01:02:02;;;;;;;2.45;1.98;;;;;;;;;;20887395;28;20222;-77
2023/09/17 01:12:06;;;;;;;2.60;2.03;;;;;;;;;;20878454;28;20272;-77
2023/09/17 01:22:08;;;;;;;3.20;2.20;;;;;;;;;;20836796;28;20294;-77
2023/09/17 01:32:11;;;;;;;3.03;2.08;;;21.90;99.90;;;;;;20872377;28;20643;-77
2023/09/17 01:42:13;;;;;;;2.53;1.80;;;;;;;;;;20886496;28;20662;-76
2023/09/17 01:52:20;;;;;;;2.25;1.73;;;;;;;;;;20891589;28;20228;-77
2023/09/17 02:02:22;;;;;;;2.58;1.85;;;;;;;;;;20841633;28;20285;-77
2023/09/17 02:12:25;;;;;;;2.72;1.90;;;;;;;;;;20875209;28;20213;-73
2023/09/17 02:22:27;;;;;;;2.50;1.98;;;;;;;;;;20859941;28;20229;-74
2023/09/17 02:32:30;;;;;;;2.78;1.85;;;;;;;;;;20903600;28;20216;-73
2023/09/17 02:42:31;;;;;;;2.42;1.50;;;;;;;;;;20830884;28;20224;-74
2023/09/17 02:52:34;;;;;;;2.92;1.83;;;;;;;;;;20858433;28;20638;-74
2023/09/17 03:02:35;;;;;;;2.67;1.65;;;;;;;;;;20878911;28;20287;-74
2023/09/17 03:12:38;;;;;;;2.60;1.80;;;;;;;;;;20875068;28;20220;-74
2023/09/17 03:22:40;;;;;;;2.60;1.75;;;21.10;99.90;;;;;;20872056;28;20250;-74
2023/09/17 03:32:42;;;;;;;3.63;1.90;;;;;;;;;;20846382;28;20232;-73
2023/09/17 03:42:47;;;;;;;2.13;1.80;;;;;;;;;;20866261;28;20287;-74
2023/09/17 03:52:50;;;;;;;2.10;1.63;;;;;;;;;;20878945;28;20229;-74
2023/09/17 04:02:54;;;;;;;2.80;1.90;;;;;;;;;;20838599;28;20234;-75
2023/09/17 04:12:56;;;;;;;3.50;2.17;;;;;;;;;;20818667;28;20236;-75
2023/09/17 04:22:59;;;;;;;2.47;1.90;;;;;;;;;;20821496;28;20262;-75
2023/09/17 04:33:01;;;;;;;2.60;1.87;;;;;;;;;;20889062;28;20273;-74
2023/09/17 04:43:03;;;;;;;3.20;2.23;;;;;;;;;;20852104;28;20967;-75
2023/09/17 04:53:06;;;;;;;2.80;2.10;;;;;;;;;;20871162;28;20229;-74
2023/09/17 05:03:08;;;;;;;4.73;3.30;;;;;;;;;;20863343;28;20254;-74
2023/09/17 05:13:10;;;;;;;4.03;2.37;;;;;;;;;;20881946;28;20225;-75
2023/09/17 05:23:13;;;;;;;2.90;2.40;;;;;;;;;;20841908;28;20228;-75
2023/09/17 05:33:15;;;;;;;3.00;2.53;;;;;;;;;;20827258;28;20242;-75
2023/09/17 05:43:17;;;;;;;6.37;2.60;;;;;;;;;;20860293;28;20233;-76
2023/09/17 05:53:20;;;;;;;4.73;2.83;;;;;;;;;;20844667;28;20278;-74
2023/09/17 06:03:22;;;;;;;4.87;2.87;;;;;;;;;;20904091;22;20261;-77
2023/09/17 06:13:25;;;;;;;4.23;2.80;;;;;;;;;;20953533;28;20268;-78
2023/09/17 06:23:27;;;;;;;3.57;2.60;;;;;;;;;;20968557;28;20303;-79
2023/09/17 06:33:30;;;;;;;3.53;2.90;;;21.10;99.90;;;;;;20916965;28;20269;-79
2023/09/17 06:43:32;;;;;;;3.63;3.00;;;;;;;;;;20927912;28;20220;-78
2023/09/17 06:53:34;;;;;;;3.13;2.63;;;;;;;;;;20981662;28;20230;-78
2023/09/17 07:03:35;;;;;;;4.10;3.30;;;;;;;;;;20945811;28;20251;-78
2023/09/17 07:13:39;;;;;;;3.60;2.90;;;;;;;;;;20971166;28;20294;-78
2023/09/17 07:23:41;;;;;;;4.23;2.83;;;;;;;;;;20972781;28;20601;-77
2023/09/17 07:33:44;;;;;;;4.93;2.45;;;;;;;;;;21015617;28;20849;-77
2023/09/17 07:43:46;;;;;;;3.40;2.37;;;;;;;;;;20930933;28;20235;-78
2023/09/17 07:53:47;;;;;;;2.60;2.20;;;;;;;;;;20939290;28;20220;-78
2023/09/17 08:03:49;;;;;;;2.63;1.95;;;;;;;;;;20946470;28;20239;-77
2023/09/17 08:13:51;;;;;;;2.70;1.80;;;;;;;;;;20966285;28;20213;-78
2023/09/17 08:23:53;;;;;;;4.40;2.38;;;;;;;;;;20970868;28;20217;-78
2023/09/17 08:34:17;;;;;;;3.70;1.73;;;;;;;;;;20983868;28;20722;-78
2023/09/17 08:44:25;;;;;;;3.03;1.65;;;;;;;;;;20900496;28;20229;-77
2023/09/17 08:54:38;;;;;;;1.92;1.50;;;;;;;;;;20977741;28;20261;-77
2023/09/17 09:04:40;;;;;;;1.75;1.30;;;24.00;99.90;;;;;;20954586;28;20226;-78
2023/09/17 09:14:44;;;;;;;3.03;1.50;;;;;;;;;;20882073;28;20652;-78
2023/09/17 09:24:47;;;;;;;2.42;1.35;;;;;;;;;;20908401;28;20238;-78
2023/09/17 09:34:51;;;;;;;1.70;1.38;;;;;;;;;;20930808;28;20218;-78
2023/09/17 09:44:53;;;;;;;3.33;1.25;;;;;;;;;;20965034;28;20226;-78
2023/09/17 09:54:54;;;;;;;4.45;1.90;;;;;;;;;;20970086;28;20697;-78
2023/09/17 10:04:56;;;;;;;2.08;1.50;;;;;;;;;;20961713;28;20239;-77
2023/09/17 10:14:58;;;;;;;5.78;1.67;;;;;;;;;;20982885;28;20213;-78
2023/09/17 10:25:00;;;;;;;2.90;1.60;;;;;;;;;;20974271;28;20292;-78
2023/09/17 10:35:03;;;;;;;2.33;1.20;;;;;;;;;;21000128;28;20213;-77
2023/09/17 10:45:13;;;;;;;2.22;1.33;;;;;;;;;;20964635;28;20369;-77
2023/09/17 10:55:16;;;;;;;1.92;1.20;;;;;;;;;;20990643;28;20233;-77
2023/09/17 11:05:20;;;;;;;2.60;1.55;;;26.00;99.90;;;;;;20954277;28;20246;-77
2023/09/17 11:15:22;;;;;;;1.20;1.00;;;;;;;;;;20979129;28;20238;-77
2023/09/17 11:25:39;;;;;;;1.77;1.15;;;26.00;99.90;;;;;;20968482;28;20219;-77
2023/09/17 11:35:41;;;;;;;2.30;1.40;;;;;;;;;;20944737;28;20216;-77
2023/09/17 11:45:43;;;;;;;1.85;0.90;;;;;;;;;;20969160;28;20760;-78
2023/09/17 11:55:49;;;;;;;3.17;1.27;;;;;;;;;;20942068;28;20640;-75
2023/09/17 12:05:51;;;;;;;2.42;1.20;;;;;;;;;;20903508;28;20281;-80
2023/09/17 12:15:53;;;;;;;7.88;1.83;;;;;;;;;;20913019;28;20683;-78
2023/09/17 12:25:54;;;;;;;1.75;1.08;;;;;;;;;;20956111;28;20224;-76
2023/09/17 12:35:56;;;;;;;3.80;1.10;;;;;;;;;;20965035;28;20241;-77
2023/09/17 12:45:58;;;;;;;5.50;1.30;;;;;;;;;;20938909;28;20271;-78
2023/09/17 12:56:00;;;;;;;2.80;1.20;;;;;;;;;;20957551;28;20230;-77
2023/09/17 13:06:02;;;;;;;2.80;1.13;;;;;;;;;;20932892;28;20245;-76
2023/09/17 13:16:04;;;;;;;1.70;0.82;;;27.90;99.90;;;;;;20973293;28;20772;-79
2023/09/17 13:26:07;;;;;;;3.13;1.10;;;;;;;;;;20984643;28;20259;-80
2023/09/17 13:36:10;;;;;;;2.67;1.27;;;;;;;;;;20954560;28;20757;-80
2023/09/17 13:46:16;;;;;;;1.50;0.95;;;;;;;;;;20998473;28;20235;-78
2023/09/17 13:56:18;;;;;;;2.35;1.00;;;;;;;;;;21001498;28;20251;-81
2023/09/17 14:06:20;;;;;;;2.65;1.40;;;;;;;;;;20990501;28;20583;-80
2023/09/17 14:16:21;;;;;;;3.35;1.40;;;;;;;;;;20986067;28;20776;-78
2023/09/17 14:26:23;;;;;;;3.05;0.95;;;;;;;;;;20965203;28;20257;-80
2023/09/17 14:36:25;;;;;;;1.52;0.88;;;;;;;;;;20984823;28;20443;-80
2023/09/17 14:46:26;;;;;;;1.92;0.68;;;;;;;;;;20985592;28;20277;-81
2023/09/17 14:56:28;;;;;;;2.25;0.98;;;;;;;;;;20959819;28;20820;-77
2023/09/17 15:06:30;;;;;;;2.10;0.90;;;;;;;;;;20916271;28;20569;-79
2023/09/17 15:16:32;;;;;;;4.60;1.15;;;;;;;;;;20951376;28;20216;-77
2023/09/17 15:26:33;;;;;;;3.00;0.90;;;;;;;;;;20911134;28;20487;-76
2023/09/17 15:36:38;;;;;;;1.98;0.88;;;28.80;99.90;;;;;;20958721;28;20217;-78
2023/09/17 15:46:41;;;;;;;4.18;1.90;;;;;;;;;;20957452;28;20641;-79
2023/09/17 15:56:43;;;;;;;2.05;0.98;;;;;;;;;;20951260;28;20219;-79
2023/09/17 16:06:45;;;;;;;2.97;1.00;;;;;;;;;;20965346;28;20223;-79
2023/09/17 16:16:47;;;;;;;3.17;1.05;;;;;;;;;;20984015;28;20234;-84
2023/09/17 16:26:50;;;;;;;1.42;0.80;;;;;;;;;;20917994;28;20269;-82
2023/09/17 16:36:51;;;;;;;2.70;1.10;;;;;;;;;;20884997;28;20235;-77
2023/09/17 16:46:53;;;;;;;3.03;0.98;;;;;;;;;;20943889;28;20264;-77
2023/09/17 16:56:55;;;;;;;5.70;1.23;;;;;;;;;;21001972;28;20274;-79
2023/09/17 17:06:57;;;;;;;2.22;0.90;;;;;;;;;;20970588;28;20688;-77
2023/09/17 17:17:00;;;;;;;1.60;0.95;;;;;;;;;;21009493;28;20212;-78
2023/09/17 17:27:02;;;;;;;2.85;1.50;;;;;;;;;;20905970;28;20249;-80
2023/09/17 17:37:04;;;;;;;2.85;0.95;;;;;;;;;;20920174;28;20226;-78
2023/09/17 17:47:06;;;;;;;3.35;1.20;;;;;;;;;;20930576;28;20289;-79
2023/09/17 17:57:07;;;;;;;6.05;1.10;;;;;;;;;;20932472;28;20283;-78
2023/09/17 18:07:13;;;;;;;7.82;1.40;;;;;;;;;;20947005;28;20636;-79
2023/09/17 18:17:15;;;;;;;2.67;1.00;;;;;;;;;;20903307;22;20289;-70
2023/09/17 18:27:17;;;;;;;6.72;1.63;;;;;;;;;;20806254;28;20227;-70
2023/09/17 18:37:19;;;;;;;3.28;1.48;;;;;;;;;;20818221;28;20587;-70
2023/09/17 18:47:21;;;;;;;3.97;1.45;;;;;;;;;;20821964;28;20221;-70
2023/09/17 18:57:23;;;;;;;2.83;1.30;;;;;;;;;;20829692;28;20225;-72
2023/09/17 19:07:25;;;;;;;3.20;1.13;;;;;;;;;;20799616;28;20220;-71
2023/09/17 19:17:27;;;;;;;2.10;1.10;;;;;;;;;;20791666;28;20222;-71
2023/09/17 19:27:31;;;;;;;4.63;1.17;;;;;;;;;;20805432;28;20244;-69
2023/09/17 19:37:33;;;;;;;3.63;1.40;;;;;;;;;;20789756;28;20247;-71
2023/09/17 19:47:35;;;;;;;4.15;1.20;;;;;;;;;;20820786;28;20222;-68
2023/09/17 19:57:37;;;;;;;2.22;0.95;;;;;;;;;;20836743;28;20210;-69
2023/09/17 20:07:38;;;;;;;1.80;1.08;;;;;;;;;;20808284;28;20793;-69
2023/09/17 20:17:42;;;;;;;3.42;1.10;;;;;;;;;;20804648;28;20259;-69
2023/09/17 20:27:52;;;;;;;3.38;1.35;;;;;;;;;;20832101;28;20516;-71
2023/09/17 20:37:56;;;;;;;2.92;1.08;;;;;;;;;;20851654;28;20283;-70
2023/09/17 20:48:00;;;;;;;1.90;1.00;;;25.20;99.90;;;;;;20865743;28;20221;-68
2023/09/17 20:58:03;;;;;;;3.42;1.30;;;;;;;;;;20859074;28;20223;-69
2023/09/17 21:08:04;;;;;;;3.17;1.10;;;;;;;;;;20801366;28;20230;-68
2023/09/17 21:18:06;;;;;;;2.63;1.10;;;;;;;;;;20833887;28;20267;-69
2023/09/17 21:28:09;;;;;;;1.30;0.98;;;;;;;;;;20824298;28;20233;-69
2023/09/17 21:38:11;;;;;;;2.90;1.30;;;;;;;;;;20855700;28;20273;-71
2023/09/17 21:48:12;;;;;;;2.35;1.20;;;;;;;;;;20862767;28;20226;-71
2023/09/17 21:58:15;;;;;;;5.05;1.00;;;;;;;;;;20894340;28;20224;-71
2023/09/17 22:08:17;;;;;;;1.92;1.10;;;;;;;;;;20846091;28;20232;-71
2023/09/17 22:18:19;;;;;;;2.22;1.00;;;;;;;;;;20876772;28;20235;-71
2023/09/17 22:28:21;;;;;;;3.15;1.20;;;;;;;;;;20858167;28;20224;-70
2023/09/17 22:38:22;;;;;;;2.13;1.15;;;;;;;;;;20839023;28;20299;-71
2023/09/17 22:48:25;;;;;;;1.58;1.02;;;;;;;;;;20856430;28;20303;-71
2023/09/17 22:58:27;;;;;;;1.48;0.90;;;;;;;;;;20889834;28;20212;-70
2023/09/17 23:08:29;;;;;;;1.75;1.10;;;;;;;;;;20820061;28;20220;-70
2023/09/17 23:18:32;;;;;;;2.33;1.02;;;;;;;;;;20835900;28;20239;-70
2023/09/17 23:28:36;;;;;;;4.35;1.13;;;;;;;;;;20838497;28;20321;-70
2023/09/17 23:38:38;;;;;;;3.83;1.27;;;;;;;;;;20854727;28;20225;-70
2023/09/17 23:48:40;;;;;;;1.42;0.80;;;;;;;;;;20870048;28;20225;-70
2023/09/17 23:58:42;;;;;;;2.20;1.20;;;;;;;;;;20852406;28;20288;-70
